sensor_id;sensor_type;location;lat;lon;timestamp;pressure;altitude;pressure_sealevel;temperature;humidity
44457;BME280;30159;49.316;8.558;2023-08-06T00:00:46;99546.31;;;17.81;100.00
44457;BME280;30159;49.316;8.558;2023-08-06T00:03:12;99545.72;;;17.87;100.00
44457;BME280;30159;49.316;8.558;2023-08-06T00:05:41;99394.81;;;16.95;100.00
44457;BME280;30159;49.316;8.558;2023-08-06T00:08:07;99532.78;;;17.84;100.00
44457;BME280;30159;49.316;8.558;2023-08-06T00:10:35;99527.31;;;17.84;100.00
44457;BME280;30159;49.316;8.558;2023-08-06T00:13:02;99513.81;;;17.76;100.00
44457;BME280;30159;49.316;8.558;2023-08-06T00:15:28;99519.38;;;17.79;100.00
44457;BME280;30159;49.316;8.558;2023-08-06T00:17:55;99522.44;;;17.78;100.00
44457;BME280;30159;49.316;8.558;2023-08-06T00:20:21;99524.94;;;17.83;100.00
44457;BME280;30159;49.316;8.558;2023-08-06T00:22:48;99509.22;;;17.64;100.00
44457;BME280;30159;49.316;8.558;2023-08-06T00:25:14;99519.19;;;17.72;100.00
44457;BME280;30159;49.316;8.558;2023-08-06T00:27:42;99504.91;;;17.63;100.00
44457;BME280;30159;49.316;8.558;2023-08-06T00:30:10;99507.63;;;17.63;100.00
44457;BME280;30159;49.316;8.558;2023-08-06T00:32:36;99513.63;;;17.68;100.00
44457;BME280;30159;49.316;8.558;2023-08-06T00:35:03;99509.56;;;17.62;100.00
44457;BME280;30159;49.316;8.558;2023-08-06T00:37:30;99509.47;;;17.59;100.00
44457;BME280;30159;49.316;8.558;2023-08-06T00:39:56;99506.28;;;17.57;100.00
44457;BME280;30159;49.316;8.558;2023-08-06T00:42:23;99504.00;;;17.59;100.00
44457;BME280;30159;49.316;8.558;2023-08-06T00:44:51;99491.53;;;17.58;100.00
44457;BME280;30159;49.316;8.558;2023-08-06T00:47:18;99490.72;;;17.57;100.00
44457;BME280;30159;49.316;8.558;2023-08-06T00:49:44;99481.75;;;17.57;100.00
44457;BME280;30159;49.316;8.558;2023-08-06T00:52:11;99486.88;;;17.58;100.00
44457;BME280;30159;49.316;8.558;2023-08-06T00:54:38;99483.75;;;17.60;100.00
44457;BME280;30159;49.316;8.558;2023-08-06T00:57:07;99485.38;;;17.61;100.00
44457;BME280;30159;49.316;8.558;2023-08-06T00:59:33;99485.38;;;17.61;100.00
44457;BME280;30159;49.316;8.558;2023-08-06T01:02:02;99478.94;;;17.53;100.00
44457;BME280;30159;49.316;8.558;2023-08-06T01:04:28;99488.09;;;17.61;100.00
44457;BME280;30159;49.316;8.558;2023-08-06T01:07:03;99481.41;;;17.58;100.00
44457;BME280;30159;49.316;8.558;2023-08-06T01:09:43;99472.00;;;17.56;100.00
44457;BME280;30159;49.316;8.558;2023-08-06T01:12:18;99467.41;;;17.60;100.00
44457;BME280;30159;49.316;8.558;2023-08-06T01:14:53;99444.63;;;17.52;100.00
44457;BME280;30159;49.316;8.558;2023-08-06T01:17:23;99406.22;;;17.29;100.00
44457;BME280;30159;49.316;8.558;2023-08-06T01:19:51;99428.63;;;17.51;100.00
44457;BME280;30159;49.316;8.558;2023-08-06T01:22:19;99452.22;;;17.75;100.00
44457;BME280;30159;49.316;8.558;2023-08-06T01:24:47;99445.91;;;17.86;100.00
44457;BME280;30159;49.316;8.558;2023-08-06T01:27:19;99444.31;;;18.01;100.00
44457;BME280;30159;49.316;8.558;2023-08-06T01:29:54;99450.22;;;18.19;100.00
44457;BME280;30159;49.316;8.558;2023-08-06T01:32:24;99438.06;;;18.32;100.00
44457;BME280;30159;49.316;8.558;2023-08-06T01:34:51;99426.97;;;18.25;100.00
44457;BME280;30159;49.316;8.558;2023-08-06T01:37:22;99430.31;;;18.35;100.00
44457;BME280;30159;49.316;8.558;2023-08-06T01:39:49;99439.63;;;18.33;100.00
44457;BME280;30159;49.316;8.558;2023-08-06T01:42:16;99433.44;;;18.37;100.00
44457;BME280;30159;49.316;8.558;2023-08-06T01:44:42;99420.38;;;18.10;100.00
44457;BME280;30159;49.316;8.558;2023-08-06T01:47:09;99426.38;;;18.16;100.00
44457;BME280;30159;49.316;8.558;2023-08-06T01:49:35;99422.38;;;18.29;100.00
44457;BME280;30159;49.316;8.558;2023-08-06T01:52:02;99423.84;;;18.43;100.00
44457;BME280;30159;49.316;8.558;2023-08-06T01:54:30;99420.06;;;18.47;100.00
44457;BME280;30159;49.316;8.558;2023-08-06T01:56:56;99419.63;;;18.45;100.00
44457;BME280;30159;49.316;8.558;2023-08-06T01:59:23;99264.66;;;17.52;100.00
44457;BME280;30159;49.316;8.558;2023-08-06T02:01:50;99430.22;;;18.66;100.00
44457;BME280;30159;49.316;8.558;2023-08-06T02:04:16;99430.66;;;18.68;100.00
44457;BME280;30159;49.316;8.558;2023-08-06T02:06:43;99423.31;;;18.72;100.00
44457;BME280;30159;49.316;8.558;2023-08-06T02:09:10;99424.69;;;18.63;100.00
44457;BME280;30159;49.316;8.558;2023-08-06T02:11:37;99419.47;;;18.58;100.00
44457;BME280;30159;49.316;8.558;2023-08-06T02:14:04;99416.59;;;18.50;100.00
44457;BME280;30159;49.316;8.558;2023-08-06T02:16:30;99422.44;;;18.49;100.00
44457;BME280;30159;49.316;8.558;2023-08-06T02:18:57;99413.09;;;18.50;100.00
44457;BME280;30159;49.316;8.558;2023-08-06T02:21:23;99411.44;;;18.29;100.00
44457;BME280;30159;49.316;8.558;2023-08-06T02:23:50;99407.81;;;18.41;100.00
44457;BME280;30159;49.316;8.558;2023-08-06T02:26:16;99403.75;;;18.51;100.00
44457;BME280;30159;49.316;8.558;2023-08-06T02:28:44;99404.44;;;18.48;100.00
44457;BME280;30159;49.316;8.558;2023-08-06T02:31:11;99415.03;;;18.49;100.00
44457;BME280;30159;49.316;8.558;2023-08-06T02:33:37;99409.63;;;18.53;100.00
44457;BME280;30159;49.316;8.558;2023-08-06T02:36:04;99407.78;;;18.57;100.00
44457;BME280;30159;49.316;8.558;2023-08-06T02:38:31;99411.28;;;18.58;100.00
44457;BME280;30159;49.316;8.558;2023-08-06T02:40:58;99401.56;;;18.41;100.00
44457;BME280;30159;49.316;8.558;2023-08-06T02:43:24;99402.81;;;18.27;100.00
44457;BME280;30159;49.316;8.558;2023-08-06T02:45:56;99397.13;;;18.32;100.00
44457;BME280;30159;49.316;8.558;2023-08-06T02:48:22;99406.34;;;18.44;100.00
44457;BME280;30159;49.316;8.558;2023-08-06T02:50:49;99411.94;;;18.51;100.00
44457;BME280;30159;49.316;8.558;2023-08-06T02:53:15;99410.13;;;18.39;100.00
44457;BME280;30159;49.316;8.558;2023-08-06T02:55:45;99397.81;;;18.29;100.00
44457;BME280;30159;49.316;8.558;2023-08-06T02:58:12;99404.75;;;18.43;100.00
44457;BME280;30159;49.316;8.558;2023-08-06T03:00:39;99398.34;;;18.35;100.00
44457;BME280;30159;49.316;8.558;2023-08-06T03:03:07;99393.50;;;18.28;100.00
44457;BME280;30159;49.316;8.558;2023-08-06T03:05:33;99395.19;;;18.17;100.00
44457;BME280;30159;49.316;8.558;2023-08-06T03:08:00;99385.44;;;18.16;100.00
44457;BME280;30159;49.316;8.558;2023-08-06T03:10:27;99386.38;;;18.24;100.00
44457;BME280;30159;49.316;8.558;2023-08-06T03:12:53;99381.38;;;18.10;100.00
44457;BME280;30159;49.316;8.558;2023-08-06T03:15:20;99383.19;;;17.86;100.00
44457;BME280;30159;49.316;8.558;2023-08-06T03:17:46;99387.91;;;17.58;100.00
44457;BME280;30159;49.316;8.558;2023-08-06T03:20:14;99388.59;;;17.55;100.00
44457;BME280;30159;49.316;8.558;2023-08-06T03:22:41;99389.13;;;17.44;100.00
44457;BME280;30159;49.316;8.558;2023-08-06T03:25:07;99380.31;;;17.35;100.00
44457;BME280;30159;49.316;8.558;2023-08-06T03:27:34;99375.03;;;17.42;100.00
44457;BME280;30159;49.316;8.558;2023-08-06T03:30:00;99380.50;;;17.42;100.00
44457;BME280;30159;49.316;8.558;2023-08-06T03:32:27;99365.56;;;17.68;100.00
44457;BME280;30159;49.316;8.558;2023-08-06T03:34:54;99375.06;;;17.90;100.00
44457;BME280;30159;49.316;8.558;2023-08-06T03:37:22;99375.03;;;18.06;100.00
44457;BME280;30159;49.316;8.558;2023-08-06T03:39:48;99377.44;;;18.07;100.00
44457;BME280;30159;49.316;8.558;2023-08-06T03:42:15;99382.09;;;17.75;100.00
44457;BME280;30159;49.316;8.558;2023-08-06T03:44:41;99380.84;;;17.57;100.00
44457;BME280;30159;49.316;8.558;2023-08-06T03:47:08;99386.91;;;17.50;100.00
44457;BME280;30159;49.316;8.558;2023-08-06T03:49:35;99380.75;;;17.69;100.00
44457;BME280;30159;49.316;8.558;2023-08-06T03:52:01;99378.22;;;17.76;100.00
44457;BME280;30159;49.316;8.558;2023-08-06T03:54:29;99383.75;;;17.80;100.00
44457;BME280;30159;49.316;8.558;2023-08-06T03:56:56;99374.72;;;17.92;100.00
44457;BME280;30159;49.316;8.558;2023-08-06T03:59:22;99381.56;;;18.01;100.00
44457;BME280;30159;49.316;8.558;2023-08-06T04:01:49;99383.84;;;18.15;100.00
44457;BME280;30159;49.316;8.558;2023-08-06T04:04:15;99383.56;;;18.20;100.00
44457;BME280;30159;49.316;8.558;2023-08-06T04:06:42;99369.25;;;18.07;100.00
44457;BME280;30159;49.316;8.558;2023-08-06T04:09:08;99392.47;;;18.17;100.00
44457;BME280;30159;49.316;8.558;2023-08-06T04:11:36;99396.06;;;18.21;100.00
44457;BME280;30159;49.316;8.558;2023-08-06T04:14:03;99391.34;;;18.18;100.00
44457;BME280;30159;49.316;8.558;2023-08-06T04:16:29;99383.78;;;18.11;100.00
44457;BME280;30159;49.316;8.558;2023-08-06T04:18:56;99386.50;;;17.96;100.00
44457;BME280;30159;49.316;8.558;2023-08-06T04:21:23;99385.97;;;18.06;100.00
44457;BME280;30159;49.316;8.558;2023-08-06T04:23:50;99391.16;;;18.11;100.00
44457;BME280;30159;49.316;8.558;2023-08-06T04:26:16;99384.22;;;17.98;100.00
44457;BME280;30159;49.316;8.558;2023-08-06T04:28:44;99384.50;;;17.93;100.00
44457;BME280;30159;49.316;8.558;2023-08-06T04:31:11;99388.50;;;18.15;100.00
44457;BME280;30159;49.316;8.558;2023-08-06T04:33:37;99391.16;;;18.11;100.00
44457;BME280;30159;49.316;8.558;2023-08-06T04:36:04;99393.47;;;18.09;100.00
44457;BME280;30159;49.316;8.558;2023-08-06T04:38:30;99332.28;;;17.78;100.00
44457;BME280;30159;49.316;8.558;2023-08-06T04:40:57;99349.09;;;17.80;100.00
44457;BME280;30159;49.316;8.558;2023-08-06T04:43:24;99397.66;;;18.06;100.00
44457;BME280;30159;49.316;8.558;2023-08-06T04:45:54;99396.59;;;18.11;100.00
44457;BME280;30159;49.316;8.558;2023-08-06T04:48:21;99392.66;;;18.08;100.00
44457;BME280;30159;49.316;8.558;2023-08-06T04:50:49;99400.94;;;17.96;100.00
44457;BME280;30159;49.316;8.558;2023-08-06T04:53:15;99406.41;;;17.96;100.00
44457;BME280;30159;49.316;8.558;2023-08-06T04:55:42;99405.59;;;18.11;100.00
44457;BME280;30159;49.316;8.558;2023-08-06T04:58:10;99405.50;;;18.08;100.00
44457;BME280;30159;49.316;8.558;2023-08-06T05:00:36;99396.19;;;18.09;100.00
44457;BME280;30159;49.316;8.558;2023-08-06T05:03:05;99403.31;;;18.14;100.00
44457;BME280;30159;49.316;8.558;2023-08-06T05:05:32;99402.16;;;17.99;100.00
44457;BME280;30159;49.316;8.558;2023-08-06T05:07:58;99398.28;;;18.16;100.00
44457;BME280;30159;49.316;8.558;2023-08-06T05:10:25;99397.91;;;18.17;100.00
44457;BME280;30159;49.316;8.558;2023-08-06T05:12:52;99401.38;;;18.14;100.00
44457;BME280;30159;49.316;8.558;2023-08-06T05:15:18;99391.88;;;18.08;100.00
44457;BME280;30159;49.316;8.558;2023-08-06T05:17:45;99397.00;;;17.94;100.00
44457;BME280;30159;49.316;8.558;2023-08-06T05:20:13;99248.47;;;16.80;100.00
44457;BME280;30159;49.316;8.558;2023-08-06T05:22:40;99402.34;;;17.90;100.00
44457;BME280;30159;49.316;8.558;2023-08-06T05:25:07;99395.94;;;17.98;100.00
44457;BME280;30159;49.316;8.558;2023-08-06T05:27:33;99401.56;;;17.89;100.00
44457;BME280;30159;49.316;8.558;2023-08-06T05:30:00;99397.44;;;17.96;100.00
44457;BME280;30159;49.316;8.558;2023-08-06T05:32:26;99403.06;;;17.87;100.00
44457;BME280;30159;49.316;8.558;2023-08-06T05:34:53;99398.31;;;18.00;100.00
44457;BME280;30159;49.316;8.558;2023-08-06T05:37:21;99386.63;;;17.83;100.00
44457;BME280;30159;49.316;8.558;2023-08-06T05:39:47;99394.09;;;17.86;100.00
44457;BME280;30159;49.316;8.558;2023-08-06T05:42:14;99399.53;;;17.86;100.00
44457;BME280;30159;49.316;8.558;2023-08-06T05:44:40;99394.66;;;17.80;100.00
44457;BME280;30159;49.316;8.558;2023-08-06T05:47:07;99402.94;;;17.67;100.00
44457;BME280;30159;49.316;8.558;2023-08-06T05:49:33;99403.91;;;17.75;100.00
44457;BME280;30159;49.316;8.558;2023-08-06T05:52:00;99409.91;;;17.81;100.00
44457;BME280;30159;49.316;8.558;2023-08-06T05:54:29;99405.00;;;17.86;100.00
44457;BME280;30159;49.316;8.558;2023-08-06T05:56:55;99407.38;;;17.88;100.00
44457;BME280;30159;49.316;8.558;2023-08-06T05:59:22;99259.69;;;17.06;100.00
44457;BME280;30159;49.316;8.558;2023-08-06T06:01:48;99415.03;;;17.98;100.00
44457;BME280;30159;49.316;8.558;2023-08-06T06:04:15;99418.19;;;17.84;100.00
44457;BME280;30159;49.316;8.558;2023-08-06T06:06:41;99419.78;;;17.85;100.00
44457;BME280;30159;49.316;8.558;2023-08-06T06:09:08;99412.91;;;17.92;100.00
44457;BME280;30159;49.316;8.558;2023-08-06T06:11:36;99412.13;;;17.91;100.00
44457;BME280;30159;49.316;8.558;2023-08-06T06:14:02;99368.72;;;17.70;100.00
44457;BME280;30159;49.316;8.558;2023-08-06T06:16:29;99414.84;;;17.91;100.00
44457;BME280;30159;49.316;8.558;2023-08-06T06:18:55;99415.56;;;17.88;100.00
44457;BME280;30159;49.316;8.558;2023-08-06T06:21:22;99425.94;;;17.82;100.00
44457;BME280;30159;49.316;8.558;2023-08-06T06:23:49;99420.09;;;17.68;100.00
44457;BME280;30159;49.316;8.558;2023-08-06T06:26:16;99382.69;;;17.53;100.00
44457;BME280;30159;49.316;8.558;2023-08-06T06:28:44;99419.69;;;17.82;100.00
44457;BME280;30159;49.316;8.558;2023-08-06T06:31:11;99424.41;;;17.69;100.00
44457;BME280;30159;49.316;8.558;2023-08-06T06:33:38;99427.75;;;17.78;100.00
44457;BME280;30159;49.316;8.558;2023-08-06T06:36:04;99425.56;;;17.68;100.00
44457;BME280;30159;49.316;8.558;2023-08-06T06:38:32;99432.28;;;17.86;100.00
44457;BME280;30159;49.316;8.558;2023-08-06T06:40:59;99426.44;;;18.04;100.00
44457;BME280;30159;49.316;8.558;2023-08-06T06:43:27;99431.28;;;18.10;100.00
44457;BME280;30159;49.316;8.558;2023-08-06T06:45:55;99425.03;;;18.26;100.00
44457;BME280;30159;49.316;8.558;2023-08-06T06:48:22;99428.72;;;18.33;100.00
44457;BME280;30159;49.316;8.558;2023-08-06T06:50:48;99439.09;;;18.44;100.00
44457;BME280;30159;49.316;8.558;2023-08-06T06:53:15;99436.03;;;18.29;100.00
44457;BME280;30159;49.316;8.558;2023-08-06T06:55:41;99435.22;;;18.45;100.00
44457;BME280;30159;49.316;8.558;2023-08-06T06:58:08;99432.16;;;18.66;100.00
44457;BME280;30159;49.316;8.558;2023-08-06T07:00:35;99437.53;;;18.62;100.00
44457;BME280;30159;49.316;8.558;2023-08-06T07:03:03;99442.63;;;18.80;100.00
44457;BME280;30159;49.316;8.558;2023-08-06T07:05:30;99426.78;;;18.69;100.00
44457;BME280;30159;49.316;8.558;2023-08-06T07:07:56;99429.25;;;18.94;100.00
44457;BME280;30159;49.316;8.558;2023-08-06T07:10:23;99425.31;;;18.91;100.00
44457;BME280;30159;49.316;8.558;2023-08-06T07:12:49;99425.69;;;19.09;100.00
44457;BME280;30159;49.316;8.558;2023-08-06T07:15:16;99420.09;;;19.45;100.00
44457;BME280;30159;49.316;8.558;2023-08-06T07:17:43;99393.28;;;19.31;100.00
44457;BME280;30159;49.316;8.558;2023-08-06T07:20:11;99428.34;;;19.48;100.00
44457;BME280;30159;49.316;8.558;2023-08-06T07:22:38;99419.88;;;19.34;100.00
44457;BME280;30159;49.316;8.558;2023-08-06T07:25:05;99434.97;;;19.47;100.00
44457;BME280;30159;49.316;8.558;2023-08-06T07:27:32;99421.91;;;19.17;100.00
44457;BME280;30159;49.316;8.558;2023-08-06T07:29:59;99441.22;;;19.05;100.00
44457;BME280;30159;49.316;8.558;2023-08-06T07:32:26;99360.84;;;18.71;100.00
44457;BME280;30159;49.316;8.558;2023-08-06T07:34:53;99428.28;;;19.02;100.00
44457;BME280;30159;49.316;8.558;2023-08-06T07:37:26;99437.16;;;18.99;100.00
44457;BME280;30159;49.316;8.558;2023-08-06T07:39:53;99444.16;;;18.97;100.00
44457;BME280;30159;49.316;8.558;2023-08-06T07:42:20;99386.00;;;18.61;100.00
44457;BME280;30159;49.316;8.558;2023-08-06T07:44:51;99407.22;;;18.67;100.00
44457;BME280;30159;49.316;8.558;2023-08-06T07:47:17;99441.72;;;18.75;100.00
44457;BME280;30159;49.316;8.558;2023-08-06T07:49:44;99442.78;;;18.87;100.00
44457;BME280;30159;49.316;8.558;2023-08-06T07:52:10;99439.00;;;18.75;100.00
44457;BME280;30159;49.316;8.558;2023-08-06T07:54:38;99427.94;;;18.33;100.00
44457;BME280;30159;49.316;8.558;2023-08-06T07:57:05;99429.81;;;18.48;100.00
44457;BME280;30159;49.316;8.558;2023-08-06T07:59:32;99427.78;;;18.26;100.00
44457;BME280;30159;49.316;8.558;2023-08-06T08:02:00;99443.69;;;18.40;100.00
44457;BME280;30159;49.316;8.558;2023-08-06T08:04:26;99435.72;;;18.50;100.00
44457;BME280;30159;49.316;8.558;2023-08-06T08:06:53;99435.06;;;18.92;100.00
44457;BME280;30159;49.316;8.558;2023-08-06T08:09:19;99433.63;;;19.18;100.00
44457;BME280;30159;49.316;8.558;2023-08-06T08:11:47;99437.91;;;18.96;100.00
44457;BME280;30159;49.316;8.558;2023-08-06T08:14:14;99437.88;;;19.15;100.00
44457;BME280;30159;49.316;8.558;2023-08-06T08:16:41;99425.56;;;19.25;100.00
44457;BME280;30159;49.316;8.558;2023-08-06T08:19:07;99427.06;;;19.85;100.00
44457;BME280;30159;49.316;8.558;2023-08-06T08:21:34;99422.00;;;20.10;100.00
44457;BME280;30159;49.316;8.558;2023-08-06T08:24:01;99424.31;;;19.85;100.00
44457;BME280;30159;49.316;8.558;2023-08-06T08:26:27;99417.94;;;19.34;100.00
44457;BME280;30159;49.316;8.558;2023-08-06T08:28:56;99276.69;;;18.38;100.00
44457;BME280;30159;49.316;8.558;2023-08-06T08:31:23;99419.47;;;19.12;100.00
44457;BME280;30159;49.316;8.558;2023-08-06T08:33:49;99417.13;;;18.75;100.00
44457;BME280;30159;49.316;8.558;2023-08-06T08:36:16;99412.94;;;18.62;100.00
44457;BME280;30159;49.316;8.558;2023-08-06T08:38:42;99411.56;;;18.52;100.00
44457;BME280;30159;49.316;8.558;2023-08-06T08:41:10;99413.94;;;18.89;100.00
44457;BME280;30159;49.316;8.558;2023-08-06T08:43:37;99414.72;;;19.29;100.00
44457;BME280;30159;49.316;8.558;2023-08-06T08:46:08;99419.94;;;19.80;100.00
44457;BME280;30159;49.316;8.558;2023-08-06T08:48:35;99374.44;;;19.72;100.00
44457;BME280;30159;49.316;8.558;2023-08-06T08:51:02;99414.28;;;20.46;100.00
44457;BME280;30159;49.316;8.558;2023-08-06T08:53:30;99399.69;;;20.65;100.00
44457;BME280;30159;49.316;8.558;2023-08-06T08:55:58;99404.28;;;20.30;100.00
44457;BME280;30159;49.316;8.558;2023-08-06T08:58:25;99414.66;;;19.91;100.00
44457;BME280;30159;49.316;8.558;2023-08-06T09:00:52;99414.22;;;19.89;100.00
44457;BME280;30159;49.316;8.558;2023-08-06T09:03:20;99411.66;;;19.99;100.00
44457;BME280;30159;49.316;8.558;2023-08-06T09:05:49;99419.16;;;20.03;100.00
44457;BME280;30159;49.316;8.558;2023-08-06T09:08:18;99414.59;;;19.87;100.00
44457;BME280;30159;49.316;8.558;2023-08-06T09:10:48;99416.91;;;19.85;100.00
44457;BME280;30159;49.316;8.558;2023-08-06T09:13:15;99414.00;;;19.55;100.00
44457;BME280;30159;49.316;8.558;2023-08-06T09:15:42;99420.56;;;19.08;100.00
44457;BME280;30159;49.316;8.558;2023-08-06T09:18:10;99414.94;;;19.20;100.00
44457;BME280;30159;49.316;8.558;2023-08-06T09:20:38;99349.28;;;19.16;100.00
44457;BME280;30159;49.316;8.558;2023-08-06T09:23:07;99408.75;;;19.89;100.00
44457;BME280;30159;49.316;8.558;2023-08-06T09:25:38;99405.03;;;20.54;100.00
44457;BME280;30159;49.316;8.558;2023-08-06T09:28:04;99410.16;;;21.19;100.00
44457;BME280;30159;49.316;8.558;2023-08-06T09:30:32;99402.78;;;21.27;96.05
44457;BME280;30159;49.316;8.558;2023-08-06T09:32:59;99409.31;;;21.15;97.44
44457;BME280;30159;49.316;8.558;2023-08-06T09:35:28;99409.59;;;20.73;99.56
44457;BME280;30159;49.316;8.558;2023-08-06T09:38:05;99349.13;;;19.75;100.00
44457;BME280;30159;49.316;8.558;2023-08-06T09:40:32;99338.63;;;19.34;100.00
44457;BME280;30159;49.316;8.558;2023-08-06T09:42:59;99409.31;;;19.55;100.00
44457;BME280;30159;49.316;8.558;2023-08-06T09:45:28;99417.94;;;19.57;100.00
44457;BME280;30159;49.316;8.558;2023-08-06T09:47:56;99406.97;;;19.11;100.00
44457;BME280;30159;49.316;8.558;2023-08-06T09:50:23;99416.34;;;18.75;100.00
44457;BME280;30159;49.316;8.558;2023-08-06T09:52:54;99416.69;;;18.54;100.00
44457;BME280;30159;49.316;8.558;2023-08-06T09:55:23;99412.66;;;18.48;100.00
44457;BME280;30159;49.316;8.558;2023-08-06T09:57:52;99422.53;;;18.37;100.00
44457;BME280;30159;49.316;8.558;2023-08-06T10:00:19;99425.00;;;18.42;100.00
44457;BME280;30159;49.316;8.558;2023-08-06T10:02:46;99429.91;;;18.52;100.00
44457;BME280;30159;49.316;8.558;2023-08-06T10:05:15;99437.34;;;18.71;100.00
44457;BME280;30159;49.316;8.558;2023-08-06T10:07:42;99434.59;;;18.87;100.00
44457;BME280;30159;49.316;8.558;2023-08-06T10:10:10;99430.91;;;18.79;100.00
44457;BME280;30159;49.316;8.558;2023-08-06T10:12:40;99420.94;;;18.71;100.00
44457;BME280;30159;49.316;8.558;2023-08-06T10:15:11;99432.56;;;18.84;100.00
44457;BME280;30159;49.316;8.558;2023-08-06T10:17:39;99438.69;;;18.97;100.00
44457;BME280;30159;49.316;8.558;2023-08-06T10:20:08;99432.56;;;18.84;100.00
44457;BME280;30159;49.316;8.558;2023-08-06T10:22:42;99429.13;;;18.71;100.00
44457;BME280;30159;49.316;8.558;2023-08-06T10:25:09;99406.06;;;18.68;100.00
44457;BME280;30159;49.316;8.558;2023-08-06T10:27:52;99435.88;;;18.93;100.00
44457;BME280;30159;49.316;8.558;2023-08-06T10:30:28;99429.13;;;18.87;100.00
44457;BME280;30159;49.316;8.558;2023-08-06T10:32:57;99441.03;;;18.79;100.00
44457;BME280;30159;49.316;8.558;2023-08-06T10:35:35;99448.53;;;18.82;100.00
44457;BME280;30159;49.316;8.558;2023-08-06T10:38:07;99442.88;;;18.74;100.00
44457;BME280;30159;49.316;8.558;2023-08-06T10:40:35;99461.63;;;18.76;100.00
44457;BME280;30159;49.316;8.558;2023-08-06T10:43:04;99458.13;;;18.75;100.00
44457;BME280;30159;49.316;8.558;2023-08-06T10:45:34;99457.03;;;18.77;100.00
44457;BME280;30159;49.316;8.558;2023-08-06T10:48:01;99472.25;;;18.62;100.00
44457;BME280;30159;49.316;8.558;2023-08-06T10:50:28;99466.22;;;18.37;100.00
44457;BME280;30159;49.316;8.558;2023-08-06T10:52:56;99443.00;;;18.11;100.00
44457;BME280;30159;49.316;8.558;2023-08-06T10:55:24;99494.56;;;18.32;100.00
44457;BME280;30159;49.316;8.558;2023-08-06T10:57:51;99484.09;;;18.34;100.00
44457;BME280;30159;49.316;8.558;2023-08-06T11:00:20;99414.81;;;17.75;100.00
44457;BME280;30159;49.316;8.558;2023-08-06T11:02:48;99472.22;;;17.95;100.00
44457;BME280;30159;49.316;8.558;2023-08-06T11:05:15;99492.38;;;17.90;100.00
44457;BME280;30159;49.316;8.558;2023-08-06T11:07:42;99493.28;;;17.94;100.00
44457;BME280;30159;49.316;8.558;2023-08-06T11:10:10;99496.38;;;17.93;100.00
44457;BME280;30159;49.316;8.558;2023-08-06T11:12:37;99481.56;;;17.94;100.00
44457;BME280;30159;49.316;8.558;2023-08-06T11:15:05;99497.84;;;17.90;100.00
44457;BME280;30159;49.316;8.558;2023-08-06T11:17:33;99506.72;;;17.87;100.00
44457;BME280;30159;49.316;8.558;2023-08-06T11:20:02;99510.44;;;17.95;100.00
44457;BME280;30159;49.316;8.558;2023-08-06T11:22:29;99506.56;;;17.96;100.00
44457;BME280;30159;49.316;8.558;2023-08-06T11:24:55;99523.66;;;17.93;100.00
44457;BME280;30159;49.316;8.558;2023-08-06T11:27:22;99513.22;;;17.82;100.00
44457;BME280;30159;49.316;8.558;2023-08-06T11:29:49;99519.13;;;17.84;100.00
44457;BME280;30159;49.316;8.558;2023-08-06T11:32:15;99521.53;;;17.86;100.00
44457;BME280;30159;49.316;8.558;2023-08-06T11:34:43;99530.50;;;17.86;100.00
44457;BME280;30159;49.316;8.558;2023-08-06T11:37:10;99537.22;;;17.77;100.00
44457;BME280;30159;49.316;8.558;2023-08-06T11:39:37;99528.81;;;17.82;100.00
44457;BME280;30159;49.316;8.558;2023-08-06T11:42:05;99541.34;;;17.70;100.00
44457;BME280;30159;49.316;8.558;2023-08-06T11:44:35;99509.72;;;17.54;100.00
44457;BME280;30159;49.316;8.558;2023-08-06T11:47:03;99550.88;;;17.77;100.00
44457;BME280;30159;49.316;8.558;2023-08-06T11:49:38;99509.66;;;17.38;100.00
44457;BME280;30159;49.316;8.558;2023-08-06T11:52:10;99557.00;;;17.86;100.00
44457;BME280;30159;49.316;8.558;2023-08-06T11:54:37;99562.97;;;17.92;100.00
44457;BME280;30159;49.316;8.558;2023-08-06T11:57:05;99557.81;;;17.74;100.00
44457;BME280;30159;49.316;8.558;2023-08-06T11:59:32;99512.34;;;17.50;100.00
44457;BME280;30159;49.316;8.558;2023-08-06T12:02:00;99580.44;;;18.03;100.00
44457;BME280;30159;49.316;8.558;2023-08-06T12:04:27;99511.25;;;17.67;100.00
44457;BME280;30159;49.316;8.558;2023-08-06T12:06:54;99573.38;;;18.02;100.00
44457;BME280;30159;49.316;8.558;2023-08-06T12:09:22;99584.06;;;18.23;100.00
44457;BME280;30159;49.316;8.558;2023-08-06T12:11:48;99589.78;;;18.18;100.00
44457;BME280;30159;49.316;8.558;2023-08-06T12:14:15;99584.25;;;18.14;100.00
44457;BME280;30159;49.316;8.558;2023-08-06T12:16:41;99593.66;;;18.17;100.00
44457;BME280;30159;49.316;8.558;2023-08-06T12:19:08;99604.84;;;18.11;100.00
44457;BME280;30159;49.316;8.558;2023-08-06T12:21:34;99602.25;;;18.03;100.00
44457;BME280;30159;49.316;8.558;2023-08-06T12:24:01;99602.00;;;18.08;100.00
44457;BME280;30159;49.316;8.558;2023-08-06T12:26:29;99605.88;;;18.07;100.00
44457;BME280;30159;49.316;8.558;2023-08-06T12:28:55;99449.31;;;16.95;100.00
44457;BME280;30159;49.316;8.558;2023-08-06T12:31:22;99611.41;;;18.10;100.00
44457;BME280;30159;49.316;8.558;2023-08-06T12:33:49;99621.25;;;17.99;100.00
44457;BME280;30159;49.316;8.558;2023-08-06T12:36:15;99622.81;;;17.84;100.00
44457;BME280;30159;49.316;8.558;2023-08-06T12:38:42;99632.25;;;17.75;100.00
44457;BME280;30159;49.316;8.558;2023-08-06T12:41:09;99617.19;;;17.53;100.00
44457;BME280;30159;49.316;8.558;2023-08-06T12:43:36;99627.88;;;17.58;100.00
44457;BME280;30159;49.316;8.558;2023-08-06T12:46:03;99631.72;;;17.57;100.00
44457;BME280;30159;49.316;8.558;2023-08-06T12:48:29;99646.47;;;17.68;100.00
44457;BME280;30159;49.316;8.558;2023-08-06T12:50:56;99652.75;;;17.56;100.00